• Join FlightAware (Why Join?)
  • Login
  • US Flag 
03:39AM EDT


 

Airport Tracker/Info


-or-


 

Live Flight TrackerFlight Track Log ✈ RPA3242 ✈ 16-May-2013 ✈ KPHL - KALB

Flight Track Log - Related Links

Times and Time Zones

All times are in EDT time to prevent confusion due to time zone crossing. See the RPA3242 flight status page for this flight to view local times or setup timezone preferences in your user account.

Time Position Orientation Groundspeed Altitude Reporting Facility
EDT Latitude Longitude Course Direction KTS MPH feet Rate Location/Type
09:27PM 39.8667 -75.2833 37° Northeast 139 160 1,300  Level Philadelphia TRACON
09:28PM 39.8167 -75.3000 194° South 217 250 2,800 2,100 Climbing Philadelphia TRACON
09:29PM 39.8137 -74.8519 105° East  Level FlightAware Approximate
09:29PM 39.7667 -75.3333 207° Southwest 275 316 4,900  Level Philadelphia TRACON
09:30PM 39.7880 -74.7234 105° East  Level FlightAware Approximate
09:30PM 39.7167 -75.2667 134° Southeast 303 349 8,900  Level Philadelphia TRACON
09:31PM 39.8494 -74.6340 37° Northeast  Level FlightAware Approximate
09:31PM 39.7333 -75.1667 78° East 342 394 11,200  Level Philadelphia TRACON
09:32PM 39.9337 -74.5663 37° Northeast  Level FlightAware Approximate
09:32PM 39.7500 -75.0500 79° East 359 413 12,000  Level Philadelphia TRACON
09:34PM 39.7922 -74.7450 80° East 368 423 12,000 480 Level New York Center
09:35PM 39.8600 -74.6542 46° Northeast 348 400 13,700 2,220 Climbing New York Center
09:36PM 39.9375 -74.5772 37° Northeast 339 390 16,500 2,700 Climbing New York Center
09:37PM 40.0147 -74.5111 33° Northeast 355 409 19,100 2,520 Climbing New York Center
09:38PM 40.1031 -74.4153 40° Northeast 367 422 21,600 2,280 Climbing New York Center
09:39PM 40.1892 -74.3250 39° Northeast 377 434 23,800 1,200 Climbing New York Center
09:40PM 40.2814 -74.2425 34° Northeast 382 440 24,000  Climbing New York Center
09:42PM 40.5108 -74.0669 30° Northeast 393 452 24,000  Level Boston Center
09:43PM 40.6033 -74.0119 24° Northeast 393 452 24,000  Level Boston Center
09:44PM 40.6983 -73.9375 31° Northeast 393 452 24,000  Level Boston Center
09:45PM 40.7950 -73.8603 31° Northeast 398 458 24,000  Level Boston Center
09:46PM 40.8797 -73.7578 42° Northeast 403 464 24,000  Level Boston Center
09:47PM 40.9642 -73.6522 43° Northeast 409 471 24,000  Level Boston Center
09:48PM 41.0486 -73.5519 42° Northeast 403 464 24,000  Level Boston Center
09:49PM 41.1414 -73.4489 40° Northeast 397 457 24,000  Level Boston Center
09:50PM 41.2456 -73.4394 North 359 413 24,000 -2,280 Level Boston Center
09:51PM 41.3392 -73.4492 356° North 371 427 19,500 -2,700 Descending Boston Center
09:52PM 41.4392 -73.4592 356° North 423 487 18,600 -960 Descending Boston Center
09:53PM 41.5286 -73.4689 355° North 362 417 17,600 -1,080 Descending Boston Center
09:54PM 41.6203 -73.4786 355° North 328 377 16,500 -1,020 Descending Boston Center
09:55PM 41.7097 -73.5022 349° North 328 377 15,600 -1,380 Descending Boston Center
09:56PM 41.7950 -73.5261 348° North 323 372 13,800 -1,800 Descending Boston Center
09:57PM 41.8406 -73.5436 344° North 315 362 12,900 -1,680 Descending Boston Center
09:57PM 41.8739 -73.5469 356° North 318 366 12,300 -1,320 Descending Boston Center
09:58PM 41.9633 -73.5736 348° North 309 356 11,000 -660 Descending Boston Center
09:59PM 42.0422 -73.5975 347° North 298 343 11,000  Level Boston Center
10:00PM 42.1211 -73.6183 349° North 299 344 11,000 -60 Level Boston Center
10:01PM 42.1961 -73.6422 347° North 277 319 10,900 -1,020 Descending Boston Center
10:02PM 42.2686 -73.6717 343° North 261 300 9,000 -1,680 Descending Boston Center
10:03PM 42.3206 -73.6925 343° North 269 310 7,600 -1,920 Descending Boston Center
10:04PM 42.4078 -73.7308 342° North 252 290 5,200 -1,620 Descending Boston Center
10:05PM 42.4636 -73.7544 343° North 227 261 4,400 -1,200 Descending Boston Center
10:06PM 42.5092 -73.7778 339° North 179 206 3,000 -960 Descending Boston Center
10:07PM 42.5569 -73.7986 342° North 183 211 2,600 -240 Descending Boston Center
10:08PM 42.6089 -73.8025 357° North 171 197 2,600 -60 Level Boston Center
10:09PM 42.6608 -73.8206 346° North 181 208 2,500 -780 Descending Boston Center
10:10PM 42.6944 -73.8044 19° North 140 161 1,100 -1,020 Descending Boston Center
10:11PM 42.7297 -73.8081 356° North 119 137 500 -600 Descending Boston Center